Airfield :
LOGIN :

Register | Disclaimer

   EN    FR    IT 

 










Legend :    VFR   Marginal VFR   IFR   Intensive IFR   Very Intensive IFR
Visi :
Ceiling :
>= 8 km
>= 3000ft
5 to 8 km
1000 to 3000 ft
1500m to 5 km
500 to 1000 ft
800 to 1500m
200 to 500 ft
< 800m
< 200 ft
Symbols :   Thunderstorms  Fog  Heavy snow  Heavy precipitations  Wind > 20 kt
SIGMETs :     Misc.  Thunderstorms  Icing  Turbulence  Mountain Waves  Volcanic Ashes






- Airport Elevation : 63 ft
- IATA code : BZM


EHWO - Woensdrecht Airbase

CURRENT METAR :
  • 172255Z AUTO 26001KT 0350 FZFG VV000 M00/M00 Q1038 RED

EXPIRED METARs :
  • 172244Z AUTO 27002KT 0350 FZFG VV000 M00/M00 Q1038 RED
  • 172231Z AUTO 27003KT 0300 FG VV000 01/01 Q1038 RED
  • 172225Z AUTO 26003KT 0450 FZFG VV000 01/01 Q1038 RED
  • 172203Z AUTO 23001KT 0450 FZFG VV000 M00/M00 Q1038 RED
  • 172155Z AUTO 23002KT 0500 FG VV000 01/01 Q1038 RED
  • 172135Z AUTO 22001KT 0550 FZFG BKN000 00/M00 Q1038 RED
  • 172125Z AUTO 21002KT 0400 FG VV000 01/01 Q1038 RED
  • 172117Z AUTO 24001KT 0400 FG VV000 00/00 Q1038 RED
  • 172100Z AUTO 25002KT 0550 FZFG OVC000 00/M00 Q1038 RED
  • 172055Z AUTO 24003KT 0700 FG OVC000 01/01 Q1038 RED
  • 172025Z AUTO 23001KT 0550 FG FEW000 01/01 Q1038 RED
  • 172008Z AUTO 20002KT 0600 FG NCD 01/01 Q1038 RED

TAF AMD TAF EHWO
Valid from the 17 at 18:00 until the 18 at 06:00 UTC


171841Z 1718/1806 28003KT 8000 NSC
BECMG 1718/1719 1200 BR BCFG
PROB40 1722/1806 0600 FG



MET'MAP, your aeronautical weather chart ! - Copyright ORBIFLY December 2007 - Disclaimer

ORBIFLY MET'MAP TEAM :

Programming & Development : Alexandra Zaïnal
Concept & original design : Baudouin d'Aumeries
Assistance for programming : Marc-Olivier Méhu
Technical & hardware support : Manuel Goepfert

Contact : metmap@orbifly.com




SOURCES & CREDITS :

   NOAA